createdAt,value
2022-10-11T00:03:37.248Z,21.08
2022-10-11T00:08:39.260Z,21.02
2022-10-11T00:13:44.229Z,20.95
2022-10-11T00:18:47.763Z,20.88
2022-10-11T00:23:52.810Z,20.81
2022-10-11T00:28:57.676Z,20.75
2022-10-11T00:34:23.387Z,20.68
2022-10-11T00:39:25.300Z,20.63
2022-10-11T00:44:36.346Z,20.57
2022-10-11T00:49:47.738Z,20.54
2022-10-11T00:54:51.804Z,20.49
2022-10-11T00:59:57.394Z,20.45
2022-10-11T01:05:29.514Z,20.40
2022-10-11T01:10:38.225Z,20.35
2022-10-11T01:16:07.221Z,20.30
2022-10-11T01:21:41.009Z,20.26
2022-10-11T01:27:15.630Z,20.22
2022-10-11T01:33:00.458Z,20.17
2022-10-11T01:38:35.416Z,20.13
2022-10-11T01:43:41.951Z,20.11
2022-10-11T01:49:00.270Z,20.06
2022-10-11T01:55:07.547Z,20.02
2022-10-11T02:00:19.141Z,19.97
2022-10-11T02:06:06.343Z,19.93
2022-10-11T02:11:24.973Z,19.89
2022-10-11T02:16:33.090Z,19.85
2022-10-11T02:21:44.092Z,19.81
2022-10-11T02:26:54.674Z,19.77
2022-10-11T02:32:07.021Z,19.72
2022-10-11T02:37:27.619Z,19.69
2022-10-11T02:42:39.863Z,19.67
2022-10-11T02:47:48.350Z,19.62
2022-10-11T02:52:54.081Z,19.56
2022-10-11T02:57:58.272Z,19.52
2022-10-11T03:07:25.691Z,19.46
2022-10-11T03:12:35.414Z,19.47
2022-10-11T03:17:42.971Z,19.44
2022-10-11T03:22:51.305Z,19.42
2022-10-11T03:27:55.558Z,19.39
2022-10-11T03:33:01.461Z,19.39
2022-10-11T03:38:08.222Z,19.38
2022-10-11T03:43:21.612Z,19.37
2022-10-11T03:48:27.307Z,19.36
2022-10-11T03:53:38.626Z,19.33
2022-10-11T03:58:44.607Z,19.31
2022-10-11T04:03:48.660Z,19.30
2022-10-11T04:08:52.998Z,19.28
2022-10-11T04:14:00.217Z,19.27
2022-10-11T04:19:06.834Z,19.24
2022-10-11T04:24:12.317Z,19.21
2022-10-11T04:29:26.679Z,19.17
2022-10-11T04:34:33.973Z,19.16
2022-10-11T04:39:40.914Z,19.15
2022-10-11T04:44:53.568Z,19.11
2022-10-11T04:50:07.132Z,19.11
2022-10-11T04:55:13.114Z,19.05
2022-10-11T05:00:19.915Z,19.04
2022-10-11T05:05:34.712Z,19.00
2022-10-11T05:10:42.520Z,18.98
2022-10-11T05:21:28.798Z,18.92
2022-10-11T05:26:37.355Z,18.89
2022-10-11T05:31:41.994Z,18.88
2022-10-11T05:36:49.655Z,18.84
2022-10-11T05:42:01.690Z,18.84
2022-10-11T05:47:06.737Z,18.83
2022-10-11T05:52:37.680Z,18.81
2022-10-11T05:57:43.362Z,18.79
2022-10-11T06:02:55.749Z,18.79
2022-10-11T06:08:04.420Z,18.82
2022-10-11T06:13:10.573Z,18.83
2022-10-11T06:18:16.667Z,18.88
2022-10-11T06:23:22.421Z,18.93
2022-10-11T06:28:30.043Z,19.02
2022-10-11T06:33:36.757Z,19.09
2022-10-11T06:38:44.931Z,19.17
2022-10-11T06:43:54.654Z,19.26
2022-10-11T06:48:59.002Z,19.35
2022-10-11T06:54:03.160Z,19.42
2022-10-11T06:59:09.748Z,19.47
2022-10-11T07:04:13.555Z,19.54
2022-10-11T07:09:17.108Z,19.60
2022-10-11T07:14:27.084Z,19.72
2022-10-11T07:19:31.520Z,19.90
2022-10-11T07:24:39.359Z,20.27
2022-10-11T07:29:45.164Z,20.49
2022-10-11T07:34:53.814Z,20.64
2022-10-11T07:39:58.334Z,20.88
2022-10-11T07:45:04.771Z,21.23
2022-10-11T07:50:11.602Z,21.63
2022-10-11T07:55:20.437Z,22.02
2022-10-11T08:00:29.435Z,22.33
2022-10-11T08:05:43.161Z,22.41
2022-10-11T08:10:49.211Z,22.34
2022-10-11T08:15:56.030Z,22.32
2022-10-11T08:21:07.852Z,22.31
2022-10-11T08:26:13.351Z,22.24
2022-10-11T08:31:27.395Z,22.24
2022-10-11T08:36:31.610Z,22.27
2022-10-11T08:41:46.657Z,22.24
2022-10-11T08:47:00.748Z,22.21
2022-10-11T08:52:25.134Z,22.28
2022-10-11T08:57:34.560Z,22.27
2022-10-11T09:03:20.997Z,22.23
2022-10-11T09:09:09.849Z,22.20
2022-10-11T09:14:41.341Z,22.20
2022-10-11T09:20:21.284Z,22.23
2022-10-11T09:25:52.627Z,22.26
2022-10-11T09:31:01.077Z,22.31
2022-10-11T09:36:23.718Z,22.32
2022-10-11T09:41:54.902Z,22.39
2022-10-11T09:47:09.818Z,22.46
2022-10-11T09:52:24.841Z,22.55
2022-10-11T09:57:46.640Z,22.63
2022-10-11T10:08:31.720Z,22.67
2022-10-11T10:13:57.462Z,22.61
2022-10-11T10:19:22.036Z,22.68
2022-10-11T10:24:50.809Z,22.73
2022-10-11T10:30:26.667Z,22.72
2022-10-11T10:36:03.274Z,22.70
2022-10-11T10:41:16.094Z,22.71
2022-10-11T10:46:46.824Z,22.67
2022-10-11T10:52:44.198Z,22.70
2022-10-11T11:04:00.839Z,22.83
2022-10-11T11:09:49.489Z,22.94
2022-10-11T11:15:08.466Z,23.05
2022-10-11T11:20:48.538Z,23.15
2022-10-11T11:26:09.789Z,23.30
2022-10-11T11:31:55.308Z,23.40
2022-10-11T11:37:05.400Z,23.49
2022-10-11T11:42:16.062Z,23.59
2022-10-11T11:47:44.949Z,23.64
2022-10-11T11:52:56.865Z,23.74
2022-10-11T11:58:48.231Z,23.90
2022-10-11T12:04:05.359Z,24.18
2022-10-11T12:14:45.949Z,24.30
2022-10-11T12:20:13.302Z,24.09
2022-10-11T12:25:41.707Z,23.99
2022-10-11T12:30:56.519Z,23.89
2022-10-11T12:36:08.752Z,23.83
2022-10-11T12:41:21.335Z,23.76
2022-10-11T12:46:42.301Z,23.68
2022-10-11T12:52:27.161Z,23.56
2022-10-11T12:57:49.241Z,23.65
2022-10-11T13:02:51.563Z,23.65
2022-10-11T13:08:11.272Z,23.70
2022-10-11T13:13:34.247Z,23.90
2022-10-11T13:18:38.838Z,23.94
2022-10-11T13:23:46.164Z,23.85
2022-10-11T13:29:04.826Z,23.77
2022-10-11T13:34:25.745Z,23.69
2022-10-11T13:39:42.289Z,23.58
2022-10-11T13:44:49.881Z,23.47
2022-10-11T13:55:57.177Z,23.37
2022-10-11T14:01:06.750Z,23.34
2022-10-11T14:06:13.787Z,23.27
2022-10-11T14:11:48.956Z,23.21
2022-10-11T14:22:31.038Z,23.05
2022-10-11T14:27:38.479Z,22.98
2022-10-11T14:32:43.297Z,22.95
2022-10-11T14:37:49.430Z,22.92
2022-10-11T14:42:59.023Z,22.90
2022-10-11T14:48:07.272Z,22.80
2022-10-11T14:53:13.147Z,22.74
2022-10-11T14:58:46.604Z,22.71
2022-10-11T15:03:51.409Z,22.71
2022-10-11T15:08:56.359Z,22.63
2022-10-11T15:14:11.418Z,22.57
2022-10-11T15:19:21.297Z,22.52
2022-10-11T15:24:24.658Z,22.49
2022-10-11T15:29:30.033Z,22.49
2022-10-11T15:34:35.097Z,22.48
2022-10-11T15:39:41.063Z,22.46
2022-10-11T15:44:49.220Z,22.43
2022-10-11T15:49:55.257Z,22.40
2022-10-11T15:55:01.438Z,22.37
2022-10-11T16:00:08.370Z,22.33
2022-10-11T16:05:42.821Z,22.29
2022-10-11T16:10:55.967Z,22.28
2022-10-11T16:16:10.677Z,22.21
2022-10-11T16:21:22.415Z,22.19
2022-10-11T16:26:31.586Z,22.14
2022-10-11T16:31:35.672Z,22.06
2022-10-11T16:36:46.582Z,21.99
2022-10-11T16:41:54.875Z,21.93
2022-10-11T16:47:03.728Z,21.90
2022-10-11T16:52:11.092Z,21.89
2022-10-11T16:57:23.610Z,21.88
2022-10-11T17:02:32.754Z,21.86
2022-10-11T17:07:37.673Z,21.83
2022-10-11T17:12:40.877Z,21.80
2022-10-11T17:17:45.618Z,21.76
2022-10-11T17:22:56.249Z,21.71
2022-10-11T17:28:02.977Z,21.72
2022-10-11T17:33:06.653Z,21.72
2022-10-11T17:38:13.890Z,21.71
2022-10-11T17:43:20.474Z,21.68
2022-10-11T17:48:26.990Z,21.67
2022-10-11T17:53:35.901Z,21.66
2022-10-11T17:58:49.453Z,21.63
2022-10-11T18:04:04.391Z,21.61
2022-10-11T18:09:09.457Z,21.54
2022-10-11T18:14:22.091Z,21.49
2022-10-11T18:19:29.229Z,21.48
2022-10-11T18:24:36.651Z,21.48
2022-10-11T18:29:43.516Z,21.45
2022-10-11T18:34:48.365Z,21.40
2022-10-11T18:39:54.195Z,21.38
2022-10-11T18:44:57.327Z,21.37
2022-10-11T18:50:10.749Z,21.35
2022-10-11T19:07:26.766Z,21.28
2022-10-11T19:12:31.184Z,21.25
2022-10-11T19:17:48.746Z,21.23
2022-10-11T19:22:59.244Z,21.22
2022-10-11T19:28:05.399Z,21.22
2022-10-11T19:33:08.018Z,21.22
2022-10-11T19:38:12.790Z,21.26
2022-10-11T19:43:20.166Z,21.26
2022-10-11T19:48:51.810Z,21.23
2022-10-11T19:54:04.332Z,21.20
2022-10-11T19:59:09.750Z,21.18
2022-10-11T20:04:39.495Z,21.15
2022-10-11T20:09:47.585Z,21.10
2022-10-11T20:15:04.384Z,21.07
2022-10-11T20:20:16.986Z,21.02
2022-10-11T20:25:23.764Z,20.99
2022-10-11T20:30:29.395Z,20.98
2022-10-11T20:35:32.608Z,20.98
2022-10-11T20:40:35.346Z,20.97
2022-10-11T20:45:40.346Z,20.97
2022-10-11T20:50:46.390Z,20.94
2022-10-11T20:55:57.585Z,20.92
2022-10-11T21:01:07.833Z,20.88
2022-10-11T21:06:17.456Z,20.82
2022-10-11T21:11:29.036Z,20.81
2022-10-11T21:16:43.383Z,20.78
2022-10-11T21:21:53.714Z,20.76
2022-10-11T21:27:01.019Z,20.73
2022-10-11T21:32:05.759Z,20.71
2022-10-11T21:37:09.278Z,20.68
2022-10-11T21:42:16.820Z,20.68
2022-10-11T21:47:20.016Z,20.70
2022-10-11T21:52:27.741Z,20.68
2022-10-11T21:57:32.757Z,20.67
2022-10-11T22:02:40.187Z,20.67
2022-10-11T22:07:45.668Z,20.65
2022-10-11T22:24:26.638Z,20.68
2022-10-11T22:30:43.575Z,20.69
2022-10-11T22:46:38.028Z,20.65
2022-10-11T22:57:42.576Z,20.44
2022-10-11T23:02:47.164Z,20.39
2022-10-11T23:07:54.661Z,20.35
2022-10-11T23:12:59.691Z,20.31
2022-10-11T23:18:08.695Z,20.31
2022-10-11T23:23:21.618Z,20.28
2022-10-11T23:28:31.072Z,20.27
2022-10-11T23:33:33.857Z,20.24
2022-10-11T23:38:46.268Z,20.22
2022-10-11T23:44:24.966Z,20.20
2022-10-11T23:49:29.526Z,20.17
2022-10-11T23:54:41.957Z,20.15
2022-10-11T23:59:49.682Z,20.11
